Time;durP1;ratioP1;P1;durP2;ratioP2;P2;SDS_P1;SDS_P2;PMS_P1;PMS_P2;Temp;Humidity;BMP_temperature;BMP_pressure;BME280_temperature;BME280_humidity;BME280_pressure;Samples;Min_cycle;Max_cycle;Signal;HPM_P1;HPM_P2
2023/07/12 00:02:16;;;;;;;;;;;;;;;;;;2584795;54;19949;31
2023/07/12 00:04:49;;;;;;;;;;;;;;;;;;2603526;46;19935;31
2023/07/12 00:07:25;;;;;;;;;;;;;;;;;;2604249;46;19934;31
2023/07/12 00:09:58;;;;;;;;;;;;;;;;;;2585365;54;20770;31
2023/07/12 00:12:31;;;;;;;;;;;;;;;;;;2585671;54;20803;31
2023/07/12 00:15:10;;;;;;;;;;;20.00;99.90;;;;;;2585159;54;20703;31
2023/07/12 00:17:48;;;;;;;;;;;19.90;99.90;;;;;;2585721;54;19941;31
2023/07/12 00:20:23;;;;;;;;;;;;;;;;;;2754823;31;22314;31
2023/07/12 00:25:31;;;;;;;;;;;19.90;99.90;;;;;;2585042;54;20032;31
2023/07/12 00:28:10;;;;;;;;;;;20.30;99.90;;;;;;2585367;54;19961;31
2023/07/12 00:30:48;;;;;;;;;;;19.70;99.90;;;;;;2585789;54;19943;31
2023/07/12 00:33:23;;;;;;;;;;;19.90;99.90;;;;;;2585795;54;21103;31
2023/07/12 00:35:56;;;;;;;;;;;19.70;99.90;;;;;;2603909;46;19942;31
2023/07/12 00:38:29;;;;;;;;;;;19.70;99.90;;;;;;2585433;54;20917;31
2023/07/12 00:41:08;;;;;;;;;;;19.70;99.90;;;;;;2702322;39;20385;31
2023/07/12 00:43:44;;;;;;;;;;;17.90;99.90;;;;;;2604065;46;22395;31
2023/07/12 00:46:22;;;;;;;;;;;19.70;99.90;;;;;;2585798;54;19935;31
2023/07/12 00:48:56;;;;;;;;;;;19.70;99.90;;;;;;2584648;54;20808;31
2023/07/12 00:51:36;;;;;;;;;;;19.60;99.90;;;;;;2603355;46;20714;31
2023/07/12 00:54:13;;;;;;;;;;;19.60;99.90;;;;;;2603893;46;19946;31
2023/07/12 00:56:46;;;;;;;;;;;19.60;99.90;;;;;;2585802;54;21091;31
2023/07/12 00:59:22;;;;;;;;;;;19.60;99.90;;;;;;2585493;54;19942;31
2023/07/12 01:01:59;;;;;;;;;;;19.60;99.90;;;;;;2584636;54;19943;31
2023/07/12 01:04:34;;;;;;;;;;;19.60;99.90;;;;;;2585685;54;20000;31
2023/07/12 01:07:11;;;;;;;;;;;19.60;99.90;;;;;;2585690;54;20816;31
2023/07/12 01:09:46;;;;;;;;;;;19.50;99.90;;;;;;2585456;54;20688;31
2023/07/12 01:12:19;;;;;;;;;;;19.50;99.90;;;;;;2684014;39;20927;31
2023/07/12 01:14:53;;;;;;;;;;;19.50;99.90;;;;;;2585339;54;20716;31
2023/07/12 01:17:31;;;;;;;;;;;19.50;99.90;;;;;;2586249;54;20023;31
2023/07/12 01:20:04;;;;;;;;;;;19.50;99.90;;;;;;2684392;39;22258;31
2023/07/12 01:22:45;;;;;;;;;;;19.40;99.90;;;;;;2586454;54;19934;31
2023/07/12 01:25:21;;;;;;;;;;;19.40;99.90;;;;;;2594223;46;19942;31
2023/07/12 01:27:58;;;;;;;;;;;19.40;99.90;;;;;;2592548;46;20800;31
2023/07/12 01:30:32;;;;;;;;;;;19.40;99.90;;;;;;2586374;54;19941;31
2023/07/12 01:33:07;;;;;;;;;;;19.40;99.90;;;;;;2585726;54;20053;31
2023/07/12 01:35:41;;;;;;;;;;;19.40;99.90;;;;;;2585913;54;19935;31
2023/07/12 01:38:20;;;;;;;;;;;19.40;99.90;;;;;;2586121;54;19960;31
2023/07/12 01:41:00;;;;;;;;;;;19.40;99.90;;;;;;2604884;46;19938;31
2023/07/12 01:43:34;;;;;;;;;;;19.40;99.90;;;;;;2586168;54;19942;31
2023/07/12 01:46:11;;;;;;;;;;;19.30;99.90;;;;;;2586076;54;20807;31
2023/07/12 01:48:45;;;;;;;;;;;19.30;99.90;;;;;;2586207;54;19934;31
2023/07/12 01:51:21;;;;;;;;;;;19.30;99.90;;;;;;2603836;46;19935;31
2023/07/12 01:53:59;;;;;;;;;;;19.20;99.90;;;;;;2604895;46;20871;31
2023/07/12 01:56:34;;;;;;;;;;;19.20;99.90;;;;;;2586241;54;22355;31
2023/07/12 01:59:07;;;;;;;;;;;19.10;99.90;;;;;;2586279;54;19958;31
2023/07/12 02:01:42;;;;;;;;;;;19.10;99.90;;;;;;2585941;54;19941;31
2023/07/12 02:04:21;;;;;;;;;;;19.10;99.90;;;;;;2585944;54;19934;31
2023/07/12 02:06:54;;;;;;;;;;;19.00;99.90;;;;;;2585441;54;19949;31
2023/07/12 02:09:35;;;;;;;;;;;19.00;99.90;;;;;;2604658;46;20825;31
2023/07/12 02:12:09;;;;;;;;;;;18.90;99.90;;;;;;2604986;46;22345;31
2023/07/12 02:14:41;;;;;;;;;;;18.90;99.90;;;;;;2586209;54;20733;31
2023/07/12 02:17:16;;;;;;;;;;;18.90;99.90;;;;;;2585968;54;19935;31
2023/07/12 02:19:48;;;;;;;;;;;18.90;99.90;;;;;;2684294;39;22229;31
2023/07/12 02:22:29;;;;;;;;;;;18.80;99.90;;;;;;2598791;46;20680;31
2023/07/12 02:25:06;;;;;;;;;;;18.80;99.90;;;;;;2604644;46;20795;31
2023/07/12 02:27:44;;;;;;;;;;;18.80;99.90;;;;;;2586282;54;19934;31
2023/07/12 02:30:21;;;;;;;;;;;18.70;99.90;;;;;;2597454;46;20787;31
2023/07/12 02:32:56;;;;;;;;;;;18.70;99.90;;;;;;2584861;54;20690;31
2023/07/12 02:35:31;;;;;;;;;;;18.70;99.90;;;;;;2602455;46;19938;31
2023/07/12 02:38:06;;;;;;;;;;;18.70;99.90;;;;;;2602512;46;20703;31
2023/07/12 02:40:43;;;;;;;;;;;18.70;99.90;;;;;;2585003;54;21919;31
2023/07/12 02:43:18;;;;;;;;;;;18.70;99.90;;;;;;2596789;46;19938;31
2023/07/12 02:45:55;;;;;;;;;;;18.70;99.90;;;;;;2584797;54;20735;31
2023/07/12 02:48:31;;;;;;;;;;;18.70;99.90;;;;;;2594331;46;19950;31
2023/07/12 02:51:05;;;;;;;;;;;18.70;99.90;;;;;;2697495;39;22229;31
2023/07/12 02:53:45;;;;;;;;;;;18.70;99.90;;;;;;2584925;54;20832;31
2023/07/12 02:56:22;;;;;;;;;;;18.60;99.90;;;;;;2585058;54;19989;31
2023/07/12 02:58:56;;;;;;;;;;;18.60;99.90;;;;;;2585053;54;20747;31
2023/07/12 03:01:31;;;;;;;;;;;18.60;99.90;;;;;;2604603;46;19941;31
2023/07/12 03:04:09;;;;;;;;;;;18.60;99.90;;;;;;2585039;54;20923;31
2023/07/12 03:06:46;;;;;;;;;;;18.60;99.90;;;;;;2603930;46;21968;31
2023/07/12 03:09:21;;;;;;;;;;;18.60;99.90;;;;;;2585239;54;19942;31
2023/07/12 03:11:57;;;;;;;;;;;18.60;99.90;;;;;;2604570;46;22360;31
2023/07/12 03:14:31;;;;;;;;;;;18.70;99.90;;;;;;2683911;39;22277;31
2023/07/12 03:17:06;;;;;;;;;;;18.70;99.90;;;;;;2604541;46;20802;31
2023/07/12 03:19:39;;;;;;;;;;;18.70;99.90;;;;;;2585401;54;19934;31
2023/07/12 03:22:14;;;;;;;;;;;18.70;99.90;;;;;;2684038;39;22338;31
2023/07/12 03:24:47;;;;;;;;;;;18.70;99.90;;;;;;2604414;46;20706;31
2023/07/12 03:27:24;;;;;;;;;;;18.70;99.90;;;;;;2604618;46;19934;31
2023/07/12 03:29:57;;;;;;;;;;;18.70;99.90;;;;;;2594488;46;20807;31
2023/07/12 03:32:35;;;;;;;;;;;18.70;99.90;;;;;;2603491;46;20944;31
2023/07/12 03:35:08;;;;;;;;;;;18.70;99.90;;;;;;2601060;46;21072;31
2023/07/12 03:37:40;;;;;;;;;;;18.70;99.90;;;;;;2585626;54;22198;31
2023/07/12 03:40:15;;;;;;;;;;;18.70;99.90;;;;;;2604404;46;19960;31
2023/07/12 03:42:52;;;;;;;;;;;18.70;99.90;;;;;;2585911;54;20835;31
2023/07/12 03:45:27;;;;;;;;;;;18.80;99.90;;;;;;2604419;46;20032;31
2023/07/12 03:48:02;;;;;;;;;;;18.80;99.90;;;;;;2585533;54;19997;31
2023/07/12 03:50:35;;;;;;;;;;;18.80;99.90;;;;;;2604140;46;19934;31
2023/07/12 03:53:08;;;;;;;;;;;18.80;99.90;;;;;;2585821;54;20775;31
2023/07/12 03:55:41;;;;;;;;;;;18.80;99.90;;;;;;2585094;54;20786;31
2023/07/12 03:58:20;;;;;;;;;;;18.80;99.90;;;;;;2585052;54;20814;31
2023/07/12 04:00:55;;;;;;;;;;;18.80;99.90;;;;;;2595565;46;19934;31
2023/07/12 04:03:30;;;;;;;;;;;18.80;99.90;;;;;;2585208;54;20866;31
2023/07/12 04:06:09;;;;;;;;;;;18.80;99.90;;;;;;2604085;46;20873;31
2023/07/12 04:08:43;;;;;;;;;;;18.90;99.90;;;;;;2585478;54;20005;31
2023/07/12 04:11:20;;;;;;;;;;;18.90;99.90;;;;;;2604211;46;20791;31
2023/07/12 04:13:59;;;;;;;;;;;18.90;99.90;;;;;;2604464;46;19993;31
2023/07/12 04:16:34;;;;;;;;;;;18.90;99.90;;;;;;2585724;54;20714;31
2023/07/12 04:19:09;;;;;;;;;;;19.00;99.90;;;;;;2596364;46;19961;31
2023/07/12 04:21:47;;;;;;;;;;;19.00;99.90;;;;;;2604336;46;20016;31
2023/07/12 04:24:29;;;;;;;;;;;19.00;99.90;;;;;;2585582;54;20820;31
2023/07/12 04:27:07;;;;;;;;;;;19.10;99.90;;;;;;2585722;54;20868;31
2023/07/12 04:29:43;;;;;;;;;;;19.10;99.90;;;;;;2585444;54;19934;31
2023/07/12 04:32:18;;;;;;;;;;;19.10;99.90;;;;;;2585883;54;20871;31
2023/07/12 04:34:55;;;;;;;;;;;19.20;99.90;;;;;;2604338;46;19946;31
2023/07/12 04:37:30;;;;;;;;;;;19.30;99.90;;;;;;2585853;54;20872;31
2023/07/12 04:40:07;;;;;;;;;;;19.30;99.90;;;;;;2597351;46;20803;31
2023/07/12 04:42:44;;;;;;;;;;;19.40;99.90;;;;;;2585842;54;20701;31
2023/07/12 04:45:22;;;;;;;;;;;18.80;99.90;;;;;;2603815;46;20874;31
2023/07/12 04:47:56;;;;;;;;;;;19.60;99.90;;;;;;2585566;54;19942;31
2023/07/12 04:50:33;;;;;;;;;;;19.70;99.90;;;;;;2585727;54;19942;31
2023/07/12 04:53:06;;;;;;;;;;;19.80;99.90;;;;;;2683831;39;22089;31
2023/07/12 04:55:39;;;;;;;;;;;20.00;99.90;;;;;;2585592;54;19934;31
2023/07/12 04:58:14;;;;;;;;;;;20.10;99.90;;;;;;2604195;47;19940;31
2023/07/12 05:00:55;;;;;;;;;;;20.30;99.90;;;;;;2585364;54;20888;31
2023/07/12 05:03:29;;;;;;;;;;;20.40;99.90;;;;;;2585600;54;20828;31
2023/07/12 05:06:03;;;;;;;;;;;20.50;99.90;;;;;;2603316;47;19950;31
2023/07/12 05:08:55;;;;;;;;;;;20.50;99.90;;;;;;2603701;47;20021;31
2023/07/12 05:11:32;;;;;;;;;;;20.60;99.90;;;;;;2585449;54;20062;31
2023/07/12 05:14:08;;;;;;;;;;;20.70;99.90;;;;;;2585555;54;20033;31
2023/07/12 05:16:47;;;;;;;;;;;20.80;99.90;;;;;;2603822;47;19957;31
2023/07/12 05:19:24;;;;;;;;;;;20.20;99.90;;;;;;2604163;47;19935;31
2023/07/12 05:22:01;;;;;;;;;;;20.80;99.90;;;;;;2595148;47;20871;31
2023/07/12 05:24:39;;;;;;;;;;;20.90;99.90;;;;;;2683331;39;20946;31
2023/07/12 05:27:13;;;;;;;;;;;20.90;99.90;;;;;;2585349;54;19934;31
2023/07/12 05:29:48;;;;;;;;;;;20.90;99.90;;;;;;2584449;47;20779;31
2023/07/12 05:32:26;;;;;;;;;;;20.90;99.90;;;;;;2603731;47;19934;31
2023/07/12 05:35:02;;;;;;;;;;;21.00;99.90;;;;;;2603959;47;20840;31
2023/07/12 05:37:40;;;;;;;;;;;21.00;99.90;;;;;;2772539;31;21630;31
2023/07/12 05:40:15;;;;;;;;;;;21.10;99.90;;;;;;2585323;54;19958;31
2023/07/12 05:42:52;;;;;;;;;;;21.10;99.90;;;;;;2772725;31;22389;31
2023/07/12 05:45:30;;;;;;;;;;;21.20;99.90;;;;;;2585352;54;20767;31
2023/07/12 05:48:08;;;;;;;;;;;21.20;99.90;;;;;;2604014;47;21664;31
2023/07/12 05:50:42;;;;;;;;;;;21.30;99.90;;;;;;2603467;47;21257;31
2023/07/12 05:53:17;;;;;;;;;;;21.40;99.90;;;;;;2701919;39;22100;31
2023/07/12 05:55:57;;;;;;;;;;;21.50;99.90;;;;;;2585375;54;20798;31
2023/07/12 05:58:31;;;;;;;;;;;21.50;99.90;;;;;;2585463;54;20488;31
2023/07/12 06:01:05;;;;;;;;;;;21.60;99.90;;;;;;2586206;54;21531;31
2023/07/12 06:03:43;;;;;;;;;;;21.70;99.90;;;;;;2586251;54;20016;31
2023/07/12 06:06:21;;;;;;;;;;;21.80;99.90;;;;;;2598363;46;20027;31
2023/07/12 06:09:00;;;;;;;;;;;21.90;99.90;;;;;;2585427;54;20794;31
2023/07/12 06:11:33;;;;;;;;;;;21.90;99.90;;;;;;2702999;39;22040;31
2023/07/12 06:14:08;;;;;;;;;;;22.00;99.90;;;;;;2604186;46;21691;31
2023/07/12 06:16:41;;;;;;;;;;;22.20;99.90;;;;;;2684038;39;21009;31
2023/07/12 06:19:19;;;;;;;;;;;22.30;99.90;;;;;;2585911;54;20830;31
2023/07/12 06:21:57;;;;;;;;;;;22.40;99.90;;;;;;2585782;54;19993;31
2023/07/12 06:24:30;;;;;;;;;;;22.70;99.90;;;;;;2585049;54;19942;31
2023/07/12 06:27:08;;;;;;;;;;;22.80;99.90;;;;;;2586243;54;20770;31
2023/07/12 06:29:42;;;;;;;;;;;23.00;99.90;;;;;;2598578;46;19984;31
2023/07/12 06:32:16;;;;;;;;;;;23.30;99.90;;;;;;2604459;46;19935;31
2023/07/12 06:34:53;;;;;;;;;;;23.30;99.90;;;;;;2585932;54;19935;31
2023/07/12 06:37:28;;;;;;;;;;;23.50;99.90;;;;;;2585988;54;20795;31
2023/07/12 06:40:02;;;;;;;;;;;23.60;99.90;;;;;;2684013;39;20958;31
2023/07/12 06:42:35;;;;;;;;;;;23.60;99.90;;;;;;2683784;39;20420;31
2023/07/12 06:45:12;;;;;;;;;;;23.70;99.90;;;;;;2585329;54;20698;31
2023/07/12 06:47:45;;;;;;;;;;;23.80;99.90;;;;;;2585154;54;19943;31
2023/07/12 06:50:23;;;;;;;;;;;23.80;99.90;;;;;;2584689;54;19942;31
2023/07/12 06:52:56;;;;;;;;;;;24.00;99.90;;;;;;2584925;54;20973;31
2023/07/12 06:55:34;;;;;;;;;;;24.10;99.90;;;;;;2604417;46;21811;31
2023/07/12 06:58:07;;;;;;;;;;;24.20;99.90;;;;;;2585795;54;20913;31
2023/07/12 07:00:42;;;;;;;;;;;24.30;99.90;;;;;;2604265;46;19961;31
2023/07/12 07:03:17;;;;;;;;;;;24.40;99.90;;;;;;2601179;46;20868;31
2023/07/12 07:05:54;;;;;;;;;;;24.60;99.90;;;;;;2586025;54;20804;31
2023/07/12 07:08:34;;;;;;;;;;;24.60;99.90;;;;;;2584813;54;20540;31
2023/07/12 07:11:08;;;;;;;;;;;24.60;99.90;;;;;;2683520;39;21512;31
2023/07/12 07:13:41;;;;;;;;;;;24.60;99.90;;;;;;2585336;54;20032;31
2023/07/12 07:16:17;;;;;;;;;;;24.60;99.90;;;;;;2585579;54;20725;31
2023/07/12 07:18:55;;;;;;;;;;;24.60;99.90;;;;;;2604124;46;20798;31
2023/07/12 07:21:36;;;;;;;;;;;24.50;99.90;;;;;;2585410;54;19940;31
2023/07/12 07:24:11;;;;;;;;;;;24.50;99.90;;;;;;2585318;54;20735;31
2023/07/12 07:26:46;;;;;;;;;;;24.80;99.90;;;;;;2585076;54;20769;31
2023/07/12 07:29:19;;;;;;;;;;;24.40;99.90;;;;;;2604213;46;20705;31
2023/07/12 07:31:54;;;;;;;;;;;24.40;99.90;;;;;;2604312;46;20835;31
2023/07/12 07:34:29;;;;;;;;;;;24.30;99.90;;;;;;2601437;46;19942;31
2023/07/12 07:37:06;;;;;;;;;;;24.30;99.90;;;;;;2590886;46;20761;31
2023/07/12 07:39:41;;;;;;;;;;;24.30;99.90;;;;;;2585583;54;19934;31
2023/07/12 07:42:15;;;;;;;;;;;24.20;99.90;;;;;;2585688;54;20029;31
2023/07/12 07:44:49;;;;;;;;;;;24.20;99.90;;;;;;2604032;46;19935;31
2023/07/12 07:47:24;;;;;;;;;;;24.20;99.90;;;;;;2683816;39;20400;31
2023/07/12 07:50:01;;;;;;;;;;;24.10;99.90;;;;;;2585459;54;19938;31
2023/07/12 07:52:42;;;;;;;;;;;24.10;99.90;;;;;;2683858;39;22247;31
2023/07/12 07:55:17;;;;;;;;;;;24.10;99.90;;;;;;2604412;46;20823;31
2023/07/12 07:57:54;;;;;;;;;;;24.10;99.90;;;;;;2603798;46;19962;31
2023/07/12 08:00:29;;;;;;;;;;;24.10;99.90;;;;;;2604004;46;20868;31
2023/07/12 08:03:02;;;;;;;;;;;24.10;99.90;;;;;;2603943;46;19964;31
2023/07/12 08:05:36;;;;;;;;;;;24.10;99.90;;;;;;2604203;46;20842;31
2023/07/12 08:08:15;;;;;;;;;;;24.10;99.90;;;;;;2585517;54;20812;31
2023/07/12 08:10:50;;;;;;;;;;;24.10;99.90;;;;;;2585007;54;20842;31
2023/07/12 08:13:25;;;;;;;;;;;24.10;99.90;;;;;;2585294;54;20694;31
2023/07/12 08:15:58;;;;;;;;;;;24.00;99.90;;;;;;2584929;54;20805;31
2023/07/12 08:18:34;;;;;;;;;;;24.00;99.90;;;;;;2585690;54;20761;31
2023/07/12 08:21:07;;;;;;;;;;;24.00;99.90;;;;;;2584982;54;20722;31
2023/07/12 08:23:44;;;;;;;;;;;24.00;99.90;;;;;;2585590;54;20782;31
2023/07/12 08:26:19;;;;;;;;;;;24.10;99.90;;;;;;2603780;46;20699;31
2023/07/12 08:28:54;;;;;;;;;;;24.00;99.90;;;;;;2603982;46;19935;31
2023/07/12 08:31:29;;;;;;;;;;;24.10;99.90;;;;;;2603718;46;19946;31
2023/07/12 08:34:01;;;;;;;;;;;24.10;99.90;;;;;;2585508;54;19934;31
2023/07/12 08:36:37;;;;;;;;;;;24.10;99.90;;;;;;2603845;46;20855;31
2023/07/12 08:39:15;;;;;;;;;;;24.10;99.90;;;;;;2585609;54;20797;31
2023/07/12 08:41:49;;;;;;;;;;;24.20;99.90;;;;;;2585575;54;20481;31
2023/07/12 08:44:23;;;;;;;;;;;24.10;99.90;;;;;;2604200;46;20847;31
2023/07/12 08:46:59;;;;;;;;;;;24.20;99.90;;;;;;2604080;46;20819;31
2023/07/12 08:49:33;;;;;;;;;;;24.20;99.90;;;;;;2585332;54;19941;31
2023/07/12 08:52:06;;;;;;;;;;;24.30;99.90;;;;;;2585719;54;22311;31
2023/07/12 08:54:44;;;;;;;;;;;24.30;99.90;;;;;;2585008;54;19942;31
2023/07/12 08:57:22;;;;;;;;;;;24.30;99.90;;;;;;2604172;46;19935;31
2023/07/12 09:00:01;;;;;;;;;;;24.30;99.90;;;;;;2585186;54;19949;31
2023/07/12 09:02:38;;;;;;;;;;;24.30;99.90;;;;;;2594544;47;19938;31
2023/07/12 09:05:16;;;;;;;;;;;24.50;99.90;;;;;;2584013;54;20754;31
2023/07/12 09:07:53;;;;;;;;;;;24.40;99.90;;;;;;2585481;54;20909;31
2023/07/12 09:10:34;;;;;;;;;;;24.40;99.90;;;;;;2603975;47;21064;31
2023/07/12 09:15:43;;;;;;;;;;;24.50;99.90;;;;;;2585018;54;19964;31
2023/07/12 09:18:26;;;;;;;;;;;23.70;99.90;;;;;;2603651;47;20859;31
2023/07/12 09:21:00;;;;;;;;;;;24.80;99.90;;;;;;2604031;47;19934;31
2023/07/12 09:23:34;;;;;;;;;;;24.90;99.90;;;;;;2584537;54;20056;31
2023/07/12 09:26:15;;;;;;;;;;;24.90;99.90;;;;;;2584983;54;19938;31
2023/07/12 09:28:53;;;;;;;;;;;25.00;99.90;;;;;;2585531;54;21766;31
2023/07/12 09:31:31;;;;;;;;;;;25.00;99.90;;;;;;2585459;54;21083;31
2023/07/12 09:34:06;;;;;;;;;;;25.10;99.90;;;;;;2585677;54;20788;31
2023/07/12 09:36:39;;;;;;;;;;;25.10;99.90;;;;;;2585805;54;20708;31
2023/07/12 09:39:15;;;;;;;;;;;25.10;99.90;;;;;;2585744;54;20690;31
2023/07/12 09:41:54;;;;;;;;;;;25.10;99.90;;;;;;2585969;54;20825;31
2023/07/12 09:44:27;;;;;;;;;;;25.20;99.90;;;;;;2585735;54;19935;31
2023/07/12 09:47:01;;;;;;;;;;;25.20;99.90;;;;;;2585790;54;19961;31
2023/07/12 09:49:42;;;;;;;;;;;25.30;99.90;;;;;;2586425;54;21020;31
2023/07/12 09:52:18;;;;;;;;;;;25.40;99.90;;;;;;2585025;54;19972;31
2023/07/12 09:54:53;;;;;;;;;;;25.60;99.90;;;;;;2604661;46;21072;31
2023/07/12 09:57:39;;;;;;;;;;;25.70;99.90;;;;;;2604895;46;20791;31
2023/07/12 10:00:16;;;;;;;;;;;25.80;99.90;;;;;;2604366;46;20791;31
2023/07/12 10:02:49;;;;;;;;;;;25.80;99.90;;;;;;2597122;46;20667;31
2023/07/12 10:05:25;;;;;;;;;;;26.00;99.90;;;;;;2584963;54;20799;31
2023/07/12 10:08:00;;;;;;;;;;;26.20;99.90;;;;;;2585951;54;19935;31
2023/07/12 10:10:34;;;;;;;;;;;26.40;99.90;;;;;;2585823;54;20779;31
2023/07/12 10:13:15;;;;;;;;;;;26.80;99.90;;;;;;2585552;54;20068;31
2023/07/12 10:15:52;;;;;;;;;;;27.10;99.90;;;;;;2585658;54;20855;31
2023/07/12 10:18:32;;;;;;;;;;;27.40;99.90;;;;;;2604145;46;20751;31
2023/07/12 10:21:06;;;;;;;;;;;27.70;99.90;;;;;;2585393;54;20776;31
2023/07/12 10:23:42;;;;;;;;;;;27.90;99.90;;;;;;2585706;54;20793;31
2023/07/12 10:26:16;;;;;;;;;;;28.00;99.90;;;;;;2597104;46;20713;31
2023/07/12 10:28:55;;;;;;;;;;;28.20;99.90;;;;;;2585788;54;20809;31
2023/07/12 10:31:33;;;;;;;;;;;28.30;99.90;;;;;;2585589;54;19934;31
2023/07/12 10:34:13;;;;;;;;;;;28.30;99.90;;;;;;2604147;46;19961;31
2023/07/12 10:36:48;;;;;;;;;;;28.30;99.90;;;;;;2589623;46;20764;31
2023/07/12 10:39:21;;;;;;;;;;;28.70;99.90;;;;;;2599163;46;20909;31
2023/07/12 10:41:55;;;;;;;;;;;28.90;99.90;;;;;;2585392;54;19935;31
2023/07/12 10:44:32;;;;;;;;;;;29.00;99.90;;;;;;2604010;46;20897;31
2023/07/12 10:47:08;;;;;;;;;;;29.00;99.90;;;;;;2604284;46;20729;31
2023/07/12 10:49:43;;;;;;;;;;;28.90;99.90;;;;;;2604116;46;20717;31
2023/07/12 10:52:18;;;;;;;;;;;29.00;99.90;;;;;;2603947;46;19954;31
2023/07/12 10:55:08;;;;;;;;;;;29.10;99.90;;;;;;2585519;54;19935;31
2023/07/12 10:57:42;;;;;;;;;;;29.30;99.90;;;;;;2597942;46;19942;31
2023/07/12 11:00:37;;;;;;;;;;;29.60;99.90;;;;;;2585885;54;19941;31
2023/07/12 11:03:21;;;;;;;;;;;29.80;99.90;;;;;;2585641;54;19938;31
2023/07/12 11:06:27;;;;;;;;;;;29.90;99.90;;;;;;2584843;54;20803;31
2023/07/12 11:09:03;;;;;;;;;;;30.00;99.90;;;;;;2586817;46;19938;31
2023/07/12 11:11:33;;;;;;;;;;;30.30;99.90;;;;;;2702505;39;20994;31
2023/07/12 11:14:31;;;;;;;;;;;30.50;99.90;;;;;;2603808;46;20071;31
2023/07/12 11:17:13;;;;;;;;;;;30.70;99.90;;;;;;2585121;54;20853;31
2023/07/12 11:19:53;;;;;;;;;;;30.90;99.90;;;;;;2585412;54;20677;31
2023/07/12 11:22:49;;;;;;;;;;;31.00;99.90;;;;;;2585731;54;19934;31
2023/07/12 11:25:24;;;;;;;;;;;30.90;99.90;;;;;;2604032;46;20688;31
2023/07/12 11:27:59;;;;;;;;;;;30.90;99.90;;;;;;2603629;46;20688;31
2023/07/12 11:30:43;;;;;;;;;;;31.00;99.90;;;;;;2585423;54;20798;31
2023/07/12 11:33:33;;;;;;;;;;;31.00;99.90;;;;;;2585376;54;20800;31
2023/07/12 11:36:13;;;;;;;;;;;31.10;99.90;;;;;;2585094;54;20720;31
2023/07/12 11:38:49;;;;;;;;;;;31.20;99.90;;;;;;2603841;46;20785;31
2023/07/12 11:41:22;;;;;;;;;;;31.30;99.90;;;;;;2585099;54;19958;31
2023/07/12 11:44:02;;;;;;;;;;;31.30;99.90;;;;;;2585647;54;19965;31
2023/07/12 11:46:47;;;;;;;;;;;31.40;99.90;;;;;;2585493;54;19954;31
2023/07/12 11:49:23;;;;;;;;;;;31.30;99.90;;;;;;2585775;54;19935;31
2023/07/12 11:52:00;;;;;;;;;;;31.20;99.90;;;;;;2604094;46;21815;31
2023/07/12 11:54:36;;;;;;;;;;;31.40;99.90;;;;;;2603907;46;20779;31
2023/07/12 11:57:11;;;;;;;;;;;31.40;99.90;;;;;;2585796;54;21051;31
2023/07/12 11:59:47;;;;;;;;;;;31.50;99.90;;;;;;2694597;39;21604;31
2023/07/12 12:02:20;;;;;;;;;;;31.60;99.90;;;;;;2603587;46;20768;31
2023/07/12 12:04:59;;;;;;;;;;;31.70;99.90;;;;;;2585041;54;19934;31
2023/07/12 12:07:40;;;;;;;;;;;31.70;99.90;;;;;;2584889;54;19934;31
2023/07/12 12:10:18;;;;;;;;;;;31.90;99.90;;;;;;2585537;54;20767;31
2023/07/12 12:12:52;;;;;;;;;;;32.00;99.90;;;;;;2585106;54;20808;31
2023/07/12 12:15:25;;;;;;;;;;;31.90;99.90;;;;;;2604320;46;20705;31
2023/07/12 12:18:06;;;;;;;;;;;31.90;99.90;;;;;;2585884;54;19934;31
2023/07/12 12:20:40;;;;;;;;;;;31.90;99.90;;;;;;2603623;46;19941;31
2023/07/12 12:23:18;;;;;;;;;;;32.00;99.90;;;;;;2585896;54;20049;31
2023/07/12 12:25:53;;;;;;;;;;;32.10;99.90;;;;;;2585330;54;20857;31
2023/07/12 12:28:27;;;;;;;;;;;32.10;99.90;;;;;;2604379;46;20884;31
2023/07/12 12:31:03;;;;;;;;;;;32.10;99.60;;;;;;2584893;54;19942;31
2023/07/12 12:33:38;;;;;;;;;;;31.90;99.90;;;;;;2585904;54;19950;31
2023/07/12 12:36:17;;;;;;;;;;;31.80;99.90;;;;;;2598385;46;20802;31
2023/07/12 12:39:03;;;;;;;;;;;31.70;99.90;;;;;;2585709;54;20882;31
2023/07/12 12:41:39;;;;;;;;;;;31.60;99.90;;;;;;2585660;54;19946;31
2023/07/12 12:44:18;;;;;;;;;;;31.50;99.90;;;;;;2603898;46;20741;31
2023/07/12 12:46:53;;;;;;;;;;;31.40;99.90;;;;;;2604008;46;21052;31
2023/07/12 12:49:31;;;;;;;;;;;31.50;99.90;;;;;;2585633;54;19956;31
2023/07/12 12:52:21;;;;;;;;;;;31.50;99.90;;;;;;2585700;54;19941;31
2023/07/12 12:55:03;;;;;;;;;;;31.70;99.90;;;;;;2603719;46;19942;31
2023/07/12 12:57:47;;;;;;;;;;;31.80;99.90;;;;;;2585642;54;19940;31
2023/07/12 13:00:42;;;;;;;;;;;32.00;99.90;;;;;;2683785;39;22310;31
2023/07/12 13:03:20;;;;;;;;;;;32.00;99.90;;;;;;2585232;54;19958;31
2023/07/12 13:05:57;;;;;;;;;;;32.00;99.90;;;;;;2585772;54;19935;31
2023/07/12 13:08:30;;;;;;;;;;;32.10;99.80;;;;;;2585886;54;20773;31
2023/07/12 13:11:10;;;;;;;;;;;32.10;99.40;;;;;;2684327;39;21084;31
2023/07/12 13:13:51;;;;;;;;;;;32.10;99.70;;;;;;2586651;54;19986;31
2023/07/12 13:16:26;;;;;;;;;;;32.10;99.90;;;;;;2586398;54;20803;31
2023/07/12 13:19:03;;;;;;;;;;;32.20;99.90;;;;;;2586795;54;20780;31
2023/07/12 13:21:41;;;;;;;;;;;32.10;99.10;;;;;;2702933;39;20926;31
2023/07/12 13:24:16;;;;;;;;;;;32.20;99.10;;;;;;2604740;46;19942;31
2023/07/12 13:26:48;;;;;;;;;;;32.30;98.20;;;;;;2585475;54;19942;31
2023/07/12 13:29:27;;;;;;;;;;;32.30;98.20;;;;;;2586377;54;20775;31
2023/07/12 13:32:02;;;;;;;;;;;32.20;98.40;;;;;;2586555;54;21056;31
2023/07/12 13:34:35;;;;;;;;;;;32.10;98.30;;;;;;2585988;54;19939;31
2023/07/12 13:37:12;;;;;;;;;;;32.10;99.50;;;;;;2586049;54;20792;31
2023/07/12 13:39:49;;;;;;;;;;;32.00;99.50;;;;;;2604394;46;20718;31
2023/07/12 13:42:24;;;;;;;;;;;31.90;98.90;;;;;;2585822;54;19954;31
2023/07/12 13:45:14;;;;;;;;;;;31.30;99.30;;;;;;2586422;54;20795;31
2023/07/12 13:47:53;;;;;;;;;;;31.90;99.90;;;;;;2585651;54;20792;31
2023/07/12 13:50:31;;;;;;;;;;;31.90;99.90;;;;;;2604571;46;20701;31
2023/07/12 13:53:06;;;;;;;;;;;31.90;99.90;;;;;;2585951;54;20790;31
2023/07/12 13:55:40;;;;;;;;;;;32.00;99.90;;;;;;2585927;54;19939;31
2023/07/12 13:58:20;;;;;;;;;;;32.00;99.90;;;;;;2604296;46;19934;31
2023/07/12 14:01:03;;;;;;;;;;;31.90;98.60;;;;;;2586252;54;20114;31
2023/07/12 14:03:43;;;;;;;;;;;31.90;99.80;;;;;;2585276;54;19972;31
2023/07/12 14:06:21;;;;;;;;;;;31.90;99.90;;;;;;2586205;54;19980;31
2023/07/12 14:09:17;;;;;;;;;;;32.00;98.80;;;;;;2604688;46;20688;31
2023/07/12 14:11:52;;;;;;;;;;;32.00;98.40;;;;;;2586343;54;20023;31
2023/07/12 14:14:28;;;;;;;;;;;32.00;98.60;;;;;;2586334;54;19934;31
2023/07/12 14:17:04;;;;;;;;;;;32.00;99.30;;;;;;2604365;46;19985;31
2023/07/12 14:19:42;;;;;;;;;;;31.90;99.30;;;;;;2603933;46;20683;31
2023/07/12 14:22:22;;;;;;;;;;;31.80;99.70;;;;;;2586137;54;19957;31
2023/07/12 14:24:59;;;;;;;;;;;31.70;99.90;;;;;;2586110;54;20812;31
2023/07/12 14:27:37;;;;;;;;;;;31.60;99.90;;;;;;2604777;46;20798;31
2023/07/12 14:30:15;;;;;;;;;;;31.60;99.90;;;;;;2585925;54;19940;31
2023/07/12 14:32:55;;;;;;;;;;;31.50;99.90;;;;;;2585734;54;20668;31
2023/07/12 14:35:33;;;;;;;;;;;31.40;99.90;;;;;;2585903;54;20653;31
2023/07/12 14:38:12;;;;;;;;;;;31.40;99.90;;;;;;2682977;39;21355;31
2023/07/12 14:40:54;;;;;;;;;;;31.30;99.90;;;;;;2586301;54;21074;31
2023/07/12 14:43:29;;;;;;;;;;;31.20;99.90;;;;;;2604292;46;19942;31
2023/07/12 14:46:04;;;;;;;;;;;31.10;99.90;;;;;;2585861;54;19941;31
2023/07/12 14:48:43;;;;;;;;;;;31.00;99.90;;;;;;2585913;54;20699;31
2023/07/12 14:51:20;;;;;;;;;;;30.80;99.90;;;;;;2585680;54;19938;31
2023/07/12 14:53:54;;;;;;;;;;;30.70;99.80;;;;;;2604136;46;20816;31
2023/07/12 14:56:30;;;;;;;;;;;30.70;99.90;;;;;;2585257;54;19961;31
2023/07/12 14:59:05;;;;;;;;;;;30.60;99.90;;;;;;2585229;54;20004;31
2023/07/12 15:01:40;;;;;;;;;;;30.40;99.90;;;;;;2585394;54;20000;31
2023/07/12 15:04:15;;;;;;;;;;;30.30;99.90;;;;;;2585172;54;20830;31
2023/07/12 15:06:51;;;;;;;;;;;30.20;99.90;;;;;;2585319;54;20711;31
2023/07/12 15:09:26;;;;;;;;;;;30.20;99.90;;;;;;2603830;46;19941;31
2023/07/12 15:12:04;;;;;;;;;;;30.10;99.90;;;;;;2604209;46;19997;31
2023/07/12 15:14:42;;;;;;;;;;;30.00;99.90;;;;;;2585183;54;19997;31
2023/07/12 15:17:19;;;;;;;;;;;29.90;99.90;;;;;;2585731;54;20766;31
2023/07/12 15:20:01;;;;;;;;;;;29.80;99.90;;;;;;2585242;54;20772;31
2023/07/12 15:22:37;;;;;;;;;;;29.80;99.90;;;;;;2603570;46;20703;31
2023/07/12 15:25:19;;;;;;;;;;;29.70;99.90;;;;;;2603716;46;20839;31
2023/07/12 15:27:56;;;;;;;;;;;29.70;99.90;;;;;;2603799;46;19934;31
2023/07/12 15:30:33;;;;;;;;;;;29.70;99.90;;;;;;2585621;54;19935;31
2023/07/12 15:33:08;;;;;;;;;;;29.80;99.90;;;;;;2684022;39;20962;31